sensor_id;sensor_type;location;lat;lon;timestamp;P1;durP1;ratioP1;P2;durP2;ratioP2
7181;SDS011;3632;42.724;23.298;2024-03-06T00:01:45;22.57;;;15.03;;
7181;SDS011;3632;42.724;23.298;2024-03-06T00:04:12;22.50;;;14.80;;
7181;SDS011;3632;42.724;23.298;2024-03-06T00:06:40;19.93;;;14.00;;
7181;SDS011;3632;42.724;23.298;2024-03-06T00:09:07;21.00;;;15.40;;
7181;SDS011;3632;42.724;23.298;2024-03-06T00:11:34;21.83;;;14.63;;
7181;SDS011;3632;42.724;23.298;2024-03-06T00:14:02;18.60;;;13.77;;
7181;SDS011;3632;42.724;23.298;2024-03-06T00:16:30;19.63;;;13.47;;
7181;SDS011;3632;42.724;23.298;2024-03-06T00:18:57;18.87;;;12.87;;
7181;SDS011;3632;42.724;23.298;2024-03-06T00:21:23;21.03;;;13.07;;
7181;SDS011;3632;42.724;23.298;2024-03-06T00:23:51;18.20;;;12.63;;
7181;SDS011;3632;42.724;23.298;2024-03-06T00:26:18;18.43;;;13.17;;
7181;SDS011;3632;42.724;23.298;2024-03-06T00:28:45;21.90;;;13.27;;
7181;SDS011;3632;42.724;23.298;2024-03-06T00:31:12;19.70;;;14.00;;
7181;SDS011;3632;42.724;23.298;2024-03-06T00:33:39;22.50;;;14.13;;
7181;SDS011;3632;42.724;23.298;2024-03-06T00:36:06;20.07;;;14.20;;
7181;SDS011;3632;42.724;23.298;2024-03-06T00:38:33;22.27;;;15.43;;
7181;SDS011;3632;42.724;23.298;2024-03-06T00:41:01;22.33;;;14.93;;
7181;SDS011;3632;42.724;23.298;2024-03-06T00:43:28;23.83;;;15.13;;
7181;SDS011;3632;42.724;23.298;2024-03-06T00:45:56;22.33;;;15.40;;
7181;SDS011;3632;42.724;23.298;2024-03-06T00:48:24;25.60;;;17.83;;
7181;SDS011;3632;42.724;23.298;2024-03-06T00:50:51;26.30;;;18.20;;
7181;SDS011;3632;42.724;23.298;2024-03-06T00:53:18;24.37;;;16.00;;
7181;SDS011;3632;42.724;23.298;2024-03-06T00:55:45;25.60;;;16.30;;
7181;SDS011;3632;42.724;23.298;2024-03-06T00:58:13;23.73;;;16.83;;
7181;SDS011;3632;42.724;23.298;2024-03-06T01:00:39;21.67;;;15.83;;
7181;SDS011;3632;42.724;23.298;2024-03-06T01:03:06;24.57;;;16.23;;
7181;SDS011;3632;42.724;23.298;2024-03-06T01:05:33;25.77;;;16.40;;
7181;SDS011;3632;42.724;23.298;2024-03-06T01:08:00;22.17;;;15.20;;
7181;SDS011;3632;42.724;23.298;2024-03-06T01:10:26;25.63;;;16.73;;
7181;SDS011;3632;42.724;23.298;2024-03-06T01:12:53;28.40;;;17.53;;
7181;SDS011;3632;42.724;23.298;2024-03-06T01:15:21;22.93;;;15.97;;
7181;SDS011;3632;42.724;23.298;2024-03-06T01:17:48;22.43;;;16.13;;
7181;SDS011;3632;42.724;23.298;2024-03-06T01:20:14;23.23;;;15.03;;
7181;SDS011;3632;42.724;23.298;2024-03-06T01:22:43;22.30;;;14.90;;
7181;SDS011;3632;42.724;23.298;2024-03-06T01:25:11;19.90;;;14.90;;
7181;SDS011;3632;42.724;23.298;2024-03-06T01:27:38;21.87;;;14.97;;
7181;SDS011;3632;42.724;23.298;2024-03-06T01:30:05;23.27;;;15.80;;
7181;SDS011;3632;42.724;23.298;2024-03-06T01:32:33;20.07;;;14.13;;
7181;SDS011;3632;42.724;23.298;2024-03-06T01:35:00;24.43;;;15.40;;
7181;SDS011;3632;42.724;23.298;2024-03-06T01:37:27;20.40;;;14.20;;
7181;SDS011;3632;42.724;23.298;2024-03-06T01:39:53;24.03;;;15.67;;
7181;SDS011;3632;42.724;23.298;2024-03-06T01:42:20;20.37;;;13.90;;
7181;SDS011;3632;42.724;23.298;2024-03-06T01:44:47;21.00;;;14.60;;
7181;SDS011;3632;42.724;23.298;2024-03-06T01:47:14;21.97;;;14.80;;
7181;SDS011;3632;42.724;23.298;2024-03-06T01:49:42;21.03;;;14.73;;
7181;SDS011;3632;42.724;23.298;2024-03-06T01:52:09;20.73;;;14.53;;
7181;SDS011;3632;42.724;23.298;2024-03-06T01:54:40;20.97;;;14.93;;
7181;SDS011;3632;42.724;23.298;2024-03-06T01:57:07;23.00;;;14.73;;
7181;SDS011;3632;42.724;23.298;2024-03-06T01:59:34;21.50;;;14.70;;
7181;SDS011;3632;42.724;23.298;2024-03-06T02:02:01;19.27;;;14.13;;
7181;SDS011;3632;42.724;23.298;2024-03-06T02:04:29;18.13;;;14.37;;
7181;SDS011;3632;42.724;23.298;2024-03-06T02:06:57;22.33;;;15.70;;
7181;SDS011;3632;42.724;23.298;2024-03-06T02:09:24;23.87;;;16.27;;
7181;SDS011;3632;42.724;23.298;2024-03-06T02:11:50;22.27;;;15.10;;
7181;SDS011;3632;42.724;23.298;2024-03-06T02:14:17;30.67;;;20.43;;
7181;SDS011;3632;42.724;23.298;2024-03-06T02:16:44;24.23;;;16.50;;
7181;SDS011;3632;42.724;23.298;2024-03-06T02:19:11;22.47;;;15.43;;
7181;SDS011;3632;42.724;23.298;2024-03-06T02:21:39;23.83;;;16.37;;
7181;SDS011;3632;42.724;23.298;2024-03-06T02:24:05;24.50;;;16.77;;
7181;SDS011;3632;42.724;23.298;2024-03-06T02:26:33;23.33;;;16.57;;
7181;SDS011;3632;42.724;23.298;2024-03-06T02:29:00;26.43;;;17.83;;
7181;SDS011;3632;42.724;23.298;2024-03-06T02:31:27;20.97;;;15.50;;
7181;SDS011;3632;42.724;23.298;2024-03-06T02:33:53;21.50;;;15.07;;
7181;SDS011;3632;42.724;23.298;2024-03-06T02:36:20;24.60;;;15.00;;
7181;SDS011;3632;42.724;23.298;2024-03-06T02:38:48;25.00;;;17.03;;
7181;SDS011;3632;42.724;23.298;2024-03-06T02:41:15;24.87;;;16.00;;
7181;SDS011;3632;42.724;23.298;2024-03-06T02:43:42;25.93;;;18.37;;
7181;SDS011;3632;42.724;23.298;2024-03-06T02:46:09;21.90;;;14.67;;
7181;SDS011;3632;42.724;23.298;2024-03-06T02:48:36;24.47;;;16.37;;
7181;SDS011;3632;42.724;23.298;2024-03-06T02:51:03;23.93;;;16.33;;
7181;SDS011;3632;42.724;23.298;2024-03-06T02:53:29;27.47;;;16.83;;
7181;SDS011;3632;42.724;23.298;2024-03-06T02:55:58;23.53;;;16.73;;
7181;SDS011;3632;42.724;23.298;2024-03-06T02:58:25;24.73;;;16.57;;
7181;SDS011;3632;42.724;23.298;2024-03-06T03:00:55;26.47;;;16.93;;
7181;SDS011;3632;42.724;23.298;2024-03-06T03:03:22;28.20;;;16.67;;
7181;SDS011;3632;42.724;23.298;2024-03-06T03:05:50;30.20;;;20.33;;
7181;SDS011;3632;42.724;23.298;2024-03-06T03:08:16;25.67;;;18.77;;
7181;SDS011;3632;42.724;23.298;2024-03-06T03:10:43;24.37;;;16.53;;
7181;SDS011;3632;42.724;23.298;2024-03-06T03:13:12;23.27;;;15.67;;
7181;SDS011;3632;42.724;23.298;2024-03-06T03:15:39;24.23;;;15.50;;
7181;SDS011;3632;42.724;23.298;2024-03-06T03:18:06;25.80;;;16.00;;
7181;SDS011;3632;42.724;23.298;2024-03-06T03:20:33;24.60;;;16.00;;
7181;SDS011;3632;42.724;23.298;2024-03-06T03:23:01;26.43;;;16.23;;
7181;SDS011;3632;42.724;23.298;2024-03-06T03:25:28;26.93;;;16.80;;
7181;SDS011;3632;42.724;23.298;2024-03-06T03:27:55;27.63;;;16.10;;
7181;SDS011;3632;42.724;23.298;2024-03-06T03:30:23;26.17;;;15.90;;
7181;SDS011;3632;42.724;23.298;2024-03-06T03:32:49;29.13;;;15.43;;
7181;SDS011;3632;42.724;23.298;2024-03-06T03:35:16;23.57;;;16.10;;
7181;SDS011;3632;42.724;23.298;2024-03-06T03:37:46;23.93;;;15.87;;
7181;SDS011;3632;42.724;23.298;2024-03-06T03:40:12;24.73;;;16.47;;
7181;SDS011;3632;42.724;23.298;2024-03-06T03:42:40;25.77;;;19.13;;
7181;SDS011;3632;42.724;23.298;2024-03-06T03:45:07;24.73;;;19.23;;
7181;SDS011;3632;42.724;23.298;2024-03-06T03:47:35;22.90;;;16.57;;
7181;SDS011;3632;42.724;23.298;2024-03-06T03:50:02;22.90;;;15.70;;
7181;SDS011;3632;42.724;23.298;2024-03-06T03:52:29;25.20;;;16.40;;
7181;SDS011;3632;42.724;23.298;2024-03-06T03:54:55;24.03;;;17.13;;
7181;SDS011;3632;42.724;23.298;2024-03-06T03:57:22;23.13;;;16.70;;
7181;SDS011;3632;42.724;23.298;2024-03-06T03:59:49;22.27;;;15.80;;
7181;SDS011;3632;42.724;23.298;2024-03-06T04:02:16;29.27;;;17.77;;
7181;SDS011;3632;42.724;23.298;2024-03-06T04:04:44;27.27;;;17.87;;
7181;SDS011;3632;42.724;23.298;2024-03-06T04:07:11;21.93;;;16.27;;
7181;SDS011;3632;42.724;23.298;2024-03-06T04:09:37;27.67;;;17.07;;
7181;SDS011;3632;42.724;23.298;2024-03-06T04:12:04;23.77;;;16.83;;
7181;SDS011;3632;42.724;23.298;2024-03-06T04:14:31;22.50;;;16.27;;
7181;SDS011;3632;42.724;23.298;2024-03-06T04:16:58;25.30;;;17.27;;
7181;SDS011;3632;42.724;23.298;2024-03-06T04:19:25;25.50;;;17.07;;
7181;SDS011;3632;42.724;23.298;2024-03-06T04:21:53;26.50;;;17.93;;
7181;SDS011;3632;42.724;23.298;2024-03-06T04:24:20;28.67;;;17.17;;
7181;SDS011;3632;42.724;23.298;2024-03-06T04:26:46;27.20;;;17.13;;
7181;SDS011;3632;42.724;23.298;2024-03-06T04:29:13;31.93;;;19.20;;
7181;SDS011;3632;42.724;23.298;2024-03-06T04:31:41;28.07;;;19.50;;
7181;SDS011;3632;42.724;23.298;2024-03-06T04:34:07;28.53;;;19.73;;
7181;SDS011;3632;42.724;23.298;2024-03-06T04:36:34;28.07;;;19.13;;
7181;SDS011;3632;42.724;23.298;2024-03-06T04:39:02;36.80;;;24.37;;
7181;SDS011;3632;42.724;23.298;2024-03-06T04:41:32;42.33;;;29.07;;
7181;SDS011;3632;42.724;23.298;2024-03-06T04:43:59;32.80;;;22.57;;
7181;SDS011;3632;42.724;23.298;2024-03-06T04:46:26;29.57;;;20.13;;
7181;SDS011;3632;42.724;23.298;2024-03-06T04:48:53;31.80;;;19.90;;
7181;SDS011;3632;42.724;23.298;2024-03-06T04:51:19;29.97;;;20.80;;
7181;SDS011;3632;42.724;23.298;2024-03-06T04:53:46;27.67;;;18.67;;
7181;SDS011;3632;42.724;23.298;2024-03-06T04:56:15;28.57;;;19.77;;
7181;SDS011;3632;42.724;23.298;2024-03-06T04:58:44;31.30;;;20.07;;
7181;SDS011;3632;42.724;23.298;2024-03-06T05:01:11;29.00;;;20.87;;
7181;SDS011;3632;42.724;23.298;2024-03-06T05:03:38;33.23;;;21.53;;
7181;SDS011;3632;42.724;23.298;2024-03-06T05:06:05;33.17;;;22.43;;
7181;SDS011;3632;42.724;23.298;2024-03-06T05:08:32;38.37;;;24.23;;
7181;SDS011;3632;42.724;23.298;2024-03-06T05:10:59;39.23;;;26.37;;
7181;SDS011;3632;42.724;23.298;2024-03-06T05:13:28;40.07;;;27.77;;
7181;SDS011;3632;42.724;23.298;2024-03-06T05:15:55;37.63;;;26.67;;
7181;SDS011;3632;42.724;23.298;2024-03-06T05:18:22;36.60;;;24.00;;
7181;SDS011;3632;42.724;23.298;2024-03-06T05:20:48;34.53;;;24.33;;
7181;SDS011;3632;42.724;23.298;2024-03-06T05:23:15;33.67;;;22.00;;
7181;SDS011;3632;42.724;23.298;2024-03-06T05:25:42;37.57;;;24.43;;
7181;SDS011;3632;42.724;23.298;2024-03-06T05:28:09;36.13;;;23.77;;
7181;SDS011;3632;42.724;23.298;2024-03-06T05:30:37;27.30;;;19.03;;
7181;SDS011;3632;42.724;23.298;2024-03-06T05:33:04;30.83;;;20.70;;
7181;SDS011;3632;42.724;23.298;2024-03-06T05:35:31;36.23;;;21.00;;
7181;SDS011;3632;42.724;23.298;2024-03-06T05:37:57;32.93;;;21.00;;
7181;SDS011;3632;42.724;23.298;2024-03-06T05:40:24;33.03;;;20.77;;
7181;SDS011;3632;42.724;23.298;2024-03-06T05:42:51;31.53;;;20.87;;
7181;SDS011;3632;42.724;23.298;2024-03-06T05:45:18;31.53;;;21.83;;
7181;SDS011;3632;42.724;23.298;2024-03-06T05:47:46;33.60;;;22.73;;
7181;SDS011;3632;42.724;23.298;2024-03-06T05:50:13;36.77;;;25.07;;
7181;SDS011;3632;42.724;23.298;2024-03-06T05:52:40;45.40;;;27.23;;
7181;SDS011;3632;42.724;23.298;2024-03-06T05:55:07;49.47;;;31.70;;
7181;SDS011;3632;42.724;23.298;2024-03-06T05:57:34;47.13;;;29.27;;
7181;SDS011;3632;42.724;23.298;2024-03-06T06:00:01;47.23;;;27.87;;
7181;SDS011;3632;42.724;23.298;2024-03-06T06:02:29;47.57;;;27.43;;
7181;SDS011;3632;42.724;23.298;2024-03-06T06:04:57;41.00;;;27.10;;
7181;SDS011;3632;42.724;23.298;2024-03-06T06:07:24;43.37;;;26.87;;
7181;SDS011;3632;42.724;23.298;2024-03-06T06:09:50;44.23;;;27.77;;
7181;SDS011;3632;42.724;23.298;2024-03-06T06:12:17;44.00;;;26.93;;
7181;SDS011;3632;42.724;23.298;2024-03-06T06:14:44;46.63;;;28.13;;
7181;SDS011;3632;42.724;23.298;2024-03-06T06:17:10;44.47;;;27.77;;
7181;SDS011;3632;42.724;23.298;2024-03-06T06:19:38;50.27;;;27.70;;
7181;SDS011;3632;42.724;23.298;2024-03-06T06:22:09;42.00;;;25.03;;
7181;SDS011;3632;42.724;23.298;2024-03-06T06:24:36;35.03;;;23.97;;
7181;SDS011;3632;42.724;23.298;2024-03-06T06:27:03;36.70;;;22.80;;
7181;SDS011;3632;42.724;23.298;2024-03-06T06:29:30;32.60;;;24.23;;
7181;SDS011;3632;42.724;23.298;2024-03-06T06:31:57;44.50;;;28.43;;
7181;SDS011;3632;42.724;23.298;2024-03-06T06:34:24;40.53;;;26.57;;
7181;SDS011;3632;42.724;23.298;2024-03-06T06:36:52;37.87;;;23.17;;
7181;SDS011;3632;42.724;23.298;2024-03-06T06:39:20;38.03;;;23.13;;
7181;SDS011;3632;42.724;23.298;2024-03-06T06:41:47;37.70;;;23.90;;
7181;SDS011;3632;42.724;23.298;2024-03-06T06:44:14;33.83;;;22.10;;
7181;SDS011;3632;42.724;23.298;2024-03-06T06:46:41;37.70;;;22.17;;
7181;SDS011;3632;42.724;23.298;2024-03-06T06:49:08;32.50;;;21.20;;
7181;SDS011;3632;42.724;23.298;2024-03-06T06:51:35;27.97;;;17.73;;
7181;SDS011;3632;42.724;23.298;2024-03-06T06:54:01;23.13;;;15.53;;
7181;SDS011;3632;42.724;23.298;2024-03-06T06:56:30;22.00;;;14.70;;
7181;SDS011;3632;42.724;23.298;2024-03-06T06:58:57;26.10;;;16.23;;
7181;SDS011;3632;42.724;23.298;2024-03-06T07:01:24;24.47;;;15.37;;
7181;SDS011;3632;42.724;23.298;2024-03-06T07:03:52;25.97;;;15.30;;
7181;SDS011;3632;42.724;23.298;2024-03-06T07:06:19;23.13;;;14.93;;
7181;SDS011;3632;42.724;23.298;2024-03-06T07:08:46;22.83;;;14.00;;
7181;SDS011;3632;42.724;23.298;2024-03-06T07:11:13;28.30;;;16.43;;
7181;SDS011;3632;42.724;23.298;2024-03-06T07:13:41;25.90;;;15.83;;
7181;SDS011;3632;42.724;23.298;2024-03-06T07:16:08;28.70;;;18.60;;
7181;SDS011;3632;42.724;23.298;2024-03-06T07:18:35;34.10;;;18.50;;
7181;SDS011;3632;42.724;23.298;2024-03-06T07:21:02;29.50;;;18.70;;
7181;SDS011;3632;42.724;23.298;2024-03-06T07:23:28;33.07;;;21.33;;
7181;SDS011;3632;42.724;23.298;2024-03-06T07:25:55;40.07;;;23.00;;
7181;SDS011;3632;42.724;23.298;2024-03-06T07:28:22;33.17;;;21.47;;
7181;SDS011;3632;42.724;23.298;2024-03-06T07:30:51;39.77;;;21.50;;
7181;SDS011;3632;42.724;23.298;2024-03-06T07:33:18;28.53;;;19.27;;
7181;SDS011;3632;42.724;23.298;2024-03-06T07:35:45;31.83;;;20.37;;
7181;SDS011;3632;42.724;23.298;2024-03-06T07:38:12;35.37;;;19.43;;
7181;SDS011;3632;42.724;23.298;2024-03-06T07:40:39;33.43;;;18.83;;
7181;SDS011;3632;42.724;23.298;2024-03-06T07:43:05;30.03;;;19.40;;
7181;SDS011;3632;42.724;23.298;2024-03-06T07:45:32;27.63;;;19.30;;
7181;SDS011;3632;42.724;23.298;2024-03-06T07:48:00;30.27;;;20.13;;
7181;SDS011;3632;42.724;23.298;2024-03-06T07:50:26;27.93;;;19.40;;
7181;SDS011;3632;42.724;23.298;2024-03-06T07:52:52;28.17;;;18.87;;
7181;SDS011;3632;42.724;23.298;2024-03-06T07:55:20;28.83;;;18.80;;
7181;SDS011;3632;42.724;23.298;2024-03-06T07:57:47;33.20;;;19.60;;
7181;SDS011;3632;42.724;23.298;2024-03-06T08:00:14;30.80;;;19.57;;
7181;SDS011;3632;42.724;23.298;2024-03-06T08:02:44;30.40;;;20.07;;
7181;SDS011;3632;42.724;23.298;2024-03-06T08:05:16;39.77;;;23.17;;
7181;SDS011;3632;42.724;23.298;2024-03-06T08:07:44;34.30;;;22.30;;
7181;SDS011;3632;42.724;23.298;2024-03-06T08:10:12;33.83;;;23.03;;
7181;SDS011;3632;42.724;23.298;2024-03-06T08:12:39;38.17;;;24.10;;
7181;SDS011;3632;42.724;23.298;2024-03-06T08:15:07;38.53;;;22.17;;
7181;SDS011;3632;42.724;23.298;2024-03-06T08:17:36;34.67;;;22.20;;
7181;SDS011;3632;42.724;23.298;2024-03-06T08:20:04;29.57;;;19.43;;
7181;SDS011;3632;42.724;23.298;2024-03-06T08:22:34;30.17;;;21.00;;
7181;SDS011;3632;42.724;23.298;2024-03-06T08:25:04;35.70;;;21.03;;
7181;SDS011;3632;42.724;23.298;2024-03-06T08:27:32;35.20;;;23.40;;
7181;SDS011;3632;42.724;23.298;2024-03-06T08:30:00;35.30;;;23.63;;
7181;SDS011;3632;42.724;23.298;2024-03-06T08:32:29;32.63;;;22.70;;
7181;SDS011;3632;42.724;23.298;2024-03-06T08:34:56;31.33;;;21.27;;
7181;SDS011;3632;42.724;23.298;2024-03-06T08:37:23;29.60;;;21.77;;
7181;SDS011;3632;42.724;23.298;2024-03-06T08:39:52;32.53;;;20.27;;
7181;SDS011;3632;42.724;23.298;2024-03-06T08:42:18;26.87;;;18.33;;
7181;SDS011;3632;42.724;23.298;2024-03-06T08:44:45;33.10;;;21.63;;
7181;SDS011;3632;42.724;23.298;2024-03-06T08:47:12;30.50;;;19.60;;
7181;SDS011;3632;42.724;23.298;2024-03-06T08:49:39;34.13;;;21.23;;
7181;SDS011;3632;42.724;23.298;2024-03-06T08:52:06;32.97;;;21.67;;
7181;SDS011;3632;42.724;23.298;2024-03-06T08:54:33;26.93;;;18.90;;
7181;SDS011;3632;42.724;23.298;2024-03-06T08:57:01;26.93;;;18.93;;
7181;SDS011;3632;42.724;23.298;2024-03-06T08:59:28;23.63;;;16.90;;
7181;SDS011;3632;42.724;23.298;2024-03-06T09:01:55;24.87;;;17.07;;
7181;SDS011;3632;42.724;23.298;2024-03-06T09:04:22;22.47;;;15.17;;
7181;SDS011;3632;42.724;23.298;2024-03-06T09:06:49;24.17;;;14.40;;
7181;SDS011;3632;42.724;23.298;2024-03-06T09:09:16;30.30;;;21.33;;
7181;SDS011;3632;42.724;23.298;2024-03-06T09:11:43;23.87;;;16.40;;
7181;SDS011;3632;42.724;23.298;2024-03-06T09:14:11;21.40;;;13.93;;
7181;SDS011;3632;42.724;23.298;2024-03-06T09:16:38;20.80;;;14.10;;
7181;SDS011;3632;42.724;23.298;2024-03-06T09:19:04;21.23;;;15.20;;
7181;SDS011;3632;42.724;23.298;2024-03-06T09:21:31;23.03;;;15.57;;
7181;SDS011;3632;42.724;23.298;2024-03-06T09:23:58;21.90;;;15.87;;
7181;SDS011;3632;42.724;23.298;2024-03-06T09:26:25;20.97;;;14.13;;
7181;SDS011;3632;42.724;23.298;2024-03-06T09:28:51;16.17;;;12.67;;
7181;SDS011;3632;42.724;23.298;2024-03-06T09:31:19;19.83;;;13.67;;
7181;SDS011;3632;42.724;23.298;2024-03-06T09:33:46;18.87;;;14.50;;
7181;SDS011;3632;42.724;23.298;2024-03-06T09:36:13;18.27;;;13.03;;
7181;SDS011;3632;42.724;23.298;2024-03-06T09:38:42;19.70;;;13.30;;
7181;SDS011;3632;42.724;23.298;2024-03-06T09:41:09;25.17;;;17.93;;
7181;SDS011;3632;42.724;23.298;2024-03-06T09:43:36;17.57;;;13.47;;
7181;SDS011;3632;42.724;23.298;2024-03-06T09:46:03;13.90;;;9.73;;
7181;SDS011;3632;42.724;23.298;2024-03-06T09:48:31;16.07;;;10.60;;
7181;SDS011;3632;42.724;23.298;2024-03-06T09:51:00;14.60;;;9.53;;
7181;SDS011;3632;42.724;23.298;2024-03-06T09:53:28;15.70;;;10.10;;
7181;SDS011;3632;42.724;23.298;2024-03-06T09:55:55;12.53;;;8.13;;
7181;SDS011;3632;42.724;23.298;2024-03-06T09:58:24;17.33;;;13.07;;
7181;SDS011;3632;42.724;23.298;2024-03-06T10:00:51;13.93;;;9.40;;
7181;SDS011;3632;42.724;23.298;2024-03-06T10:03:19;13.57;;;9.60;;
7181;SDS011;3632;42.724;23.298;2024-03-06T10:05:47;13.73;;;9.20;;
7181;SDS011;3632;42.724;23.298;2024-03-06T10:08:14;15.93;;;9.47;;
7181;SDS011;3632;42.724;23.298;2024-03-06T10:10:41;15.10;;;9.87;;
7181;SDS011;3632;42.724;23.298;2024-03-06T10:13:08;11.93;;;8.90;;
7181;SDS011;3632;42.724;23.298;2024-03-06T10:15:35;10.17;;;8.20;;
7181;SDS011;3632;42.724;23.298;2024-03-06T10:18:12;13.50;;;11.10;;
7181;SDS011;3632;42.724;23.298;2024-03-06T10:20:40;12.50;;;9.00;;
7181;SDS011;3632;42.724;23.298;2024-03-06T10:23:10;12.67;;;8.23;;
7181;SDS011;3632;42.724;23.298;2024-03-06T10:25:38;13.20;;;7.50;;
7181;SDS011;3632;42.724;23.298;2024-03-06T10:28:05;9.43;;;7.60;;
7181;SDS011;3632;42.724;23.298;2024-03-06T10:30:32;11.37;;;7.40;;
7181;SDS011;3632;42.724;23.298;2024-03-06T10:33:01;8.13;;;6.63;;
7181;SDS011;3632;42.724;23.298;2024-03-06T10:35:28;11.30;;;7.50;;
7181;SDS011;3632;42.724;23.298;2024-03-06T10:37:55;9.53;;;7.17;;
7181;SDS011;3632;42.724;23.298;2024-03-06T10:40:24;10.47;;;7.87;;
7181;SDS011;3632;42.724;23.298;2024-03-06T10:42:54;12.23;;;6.90;;
7181;SDS011;3632;42.724;23.298;2024-03-06T10:45:23;7.90;;;7.00;;
7181;SDS011;3632;42.724;23.298;2024-03-06T10:47:54;11.50;;;7.53;;
7181;SDS011;3632;42.724;23.298;2024-03-06T10:50:22;10.73;;;8.03;;
7181;SDS011;3632;42.724;23.298;2024-03-06T10:52:49;17.77;;;13.37;;
7181;SDS011;3632;42.724;23.298;2024-03-06T10:55:20;10.57;;;7.77;;
7181;SDS011;3632;42.724;23.298;2024-03-06T10:57:50;9.23;;;7.07;;
7181;SDS011;3632;42.724;23.298;2024-03-06T11:00:19;10.80;;;8.17;;
7181;SDS011;3632;42.724;23.298;2024-03-06T11:02:47;13.13;;;8.30;;
7181;SDS011;3632;42.724;23.298;2024-03-06T11:05:16;10.23;;;7.23;;
7181;SDS011;3632;42.724;23.298;2024-03-06T11:07:43;9.83;;;6.53;;
7181;SDS011;3632;42.724;23.298;2024-03-06T11:10:10;10.03;;;7.00;;
7181;SDS011;3632;42.724;23.298;2024-03-06T11:12:41;8.90;;;6.50;;
7181;SDS011;3632;42.724;23.298;2024-03-06T11:15:12;8.90;;;7.00;;
7181;SDS011;3632;42.724;23.298;2024-03-06T11:17:40;7.70;;;5.93;;
7181;SDS011;3632;42.724;23.298;2024-03-06T11:23:02;8.07;;;6.17;;
7181;SDS011;3632;42.724;23.298;2024-03-06T11:28:28;9.10;;;6.00;;
7181;SDS011;3632;42.724;23.298;2024-03-06T11:30:57;8.67;;;6.67;;
7181;SDS011;3632;42.724;23.298;2024-03-06T11:33:29;9.83;;;6.50;;
7181;SDS011;3632;42.724;23.298;2024-03-06T11:36:14;8.70;;;5.27;;
7181;SDS011;3632;42.724;23.298;2024-03-06T11:38:46;6.63;;;4.53;;
7181;SDS011;3632;42.724;23.298;2024-03-06T11:41:14;8.17;;;5.07;;
7181;SDS011;3632;42.724;23.298;2024-03-06T11:43:44;6.70;;;5.40;;
7181;SDS011;3632;42.724;23.298;2024-03-06T11:46:12;9.67;;;5.70;;
7181;SDS011;3632;42.724;23.298;2024-03-06T11:48:42;9.87;;;6.37;;
7181;SDS011;3632;42.724;23.298;2024-03-06T11:51:10;9.63;;;5.60;;
7181;SDS011;3632;42.724;23.298;2024-03-06T11:53:37;6.83;;;5.53;;
7181;SDS011;3632;42.724;23.298;2024-03-06T11:56:06;7.87;;;5.60;;
7181;SDS011;3632;42.724;23.298;2024-03-06T11:58:33;9.70;;;7.67;;
7181;SDS011;3632;42.724;23.298;2024-03-06T12:01:00;11.03;;;6.43;;
7181;SDS011;3632;42.724;23.298;2024-03-06T12:03:28;9.00;;;7.60;;
7181;SDS011;3632;42.724;23.298;2024-03-06T12:05:55;10.03;;;7.70;;
7181;SDS011;3632;42.724;23.298;2024-03-06T12:08:22;10.93;;;7.23;;
7181;SDS011;3632;42.724;23.298;2024-03-06T12:10:49;8.10;;;6.10;;
7181;SDS011;3632;42.724;23.298;2024-03-06T12:13:17;8.53;;;5.93;;
7181;SDS011;3632;42.724;23.298;2024-03-06T12:15:46;9.43;;;6.10;;
7181;SDS011;3632;42.724;23.298;2024-03-06T12:18:13;8.60;;;5.03;;
7181;SDS011;3632;42.724;23.298;2024-03-06T12:20:44;6.90;;;5.10;;
7181;SDS011;3632;42.724;23.298;2024-03-06T12:23:18;8.30;;;5.63;;
7181;SDS011;3632;42.724;23.298;2024-03-06T12:25:48;7.83;;;5.83;;
7181;SDS011;3632;42.724;23.298;2024-03-06T12:28:15;9.73;;;6.87;;
7181;SDS011;3632;42.724;23.298;2024-03-06T12:30:43;12.17;;;7.33;;
7181;SDS011;3632;42.724;23.298;2024-03-06T12:33:10;12.90;;;7.07;;
7181;SDS011;3632;42.724;23.298;2024-03-06T12:35:40;8.60;;;5.73;;
7181;SDS011;3632;42.724;23.298;2024-03-06T12:38:17;12.33;;;6.10;;
7181;SDS011;3632;42.724;23.298;2024-03-06T12:40:43;13.80;;;6.87;;
7181;SDS011;3632;42.724;23.298;2024-03-06T12:43:10;8.13;;;6.33;;
7181;SDS011;3632;42.724;23.298;2024-03-06T12:45:37;10.40;;;7.47;;
7181;SDS011;3632;42.724;23.298;2024-03-06T12:48:04;9.00;;;6.50;;
7181;SDS011;3632;42.724;23.298;2024-03-06T12:50:31;8.30;;;5.40;;
7181;SDS011;3632;42.724;23.298;2024-03-06T12:52:58;10.87;;;6.47;;
7181;SDS011;3632;42.724;23.298;2024-03-06T12:55:26;10.00;;;6.10;;
7181;SDS011;3632;42.724;23.298;2024-03-06T12:57:53;6.87;;;4.37;;
7181;SDS011;3632;42.724;23.298;2024-03-06T13:00:20;7.60;;;4.90;;
7181;SDS011;3632;42.724;23.298;2024-03-06T13:02:49;6.67;;;4.80;;
7181;SDS011;3632;42.724;23.298;2024-03-06T13:05:16;8.93;;;4.40;;
7181;SDS011;3632;42.724;23.298;2024-03-06T13:07:44;7.63;;;4.43;;
7181;SDS011;3632;42.724;23.298;2024-03-06T13:10:11;7.77;;;4.47;;
7181;SDS011;3632;42.724;23.298;2024-03-06T13:12:39;7.67;;;4.40;;
7181;SDS011;3632;42.724;23.298;2024-03-06T13:15:06;9.23;;;5.57;;
7181;SDS011;3632;42.724;23.298;2024-03-06T13:17:33;5.87;;;5.00;;
7181;SDS011;3632;42.724;23.298;2024-03-06T13:20:00;7.70;;;6.83;;
7181;SDS011;3632;42.724;23.298;2024-03-06T13:22:27;11.57;;;7.93;;
7181;SDS011;3632;42.724;23.298;2024-03-06T13:24:54;7.17;;;5.20;;
7181;SDS011;3632;42.724;23.298;2024-03-06T13:27:22;6.10;;;4.60;;
7181;SDS011;3632;42.724;23.298;2024-03-06T13:29:50;7.30;;;4.90;;
7181;SDS011;3632;42.724;23.298;2024-03-06T13:32:17;5.73;;;4.77;;
7181;SDS011;3632;42.724;23.298;2024-03-06T13:34:44;5.83;;;4.83;;
7181;SDS011;3632;42.724;23.298;2024-03-06T13:37:10;7.93;;;4.70;;
7181;SDS011;3632;42.724;23.298;2024-03-06T13:39:37;7.53;;;5.50;;
7181;SDS011;3632;42.724;23.298;2024-03-06T13:42:05;6.47;;;5.07;;
7181;SDS011;3632;42.724;23.298;2024-03-06T13:44:33;7.17;;;5.40;;
7181;SDS011;3632;42.724;23.298;2024-03-06T13:47:01;8.47;;;7.03;;
7181;SDS011;3632;42.724;23.298;2024-03-06T13:49:34;6.90;;;4.97;;
7181;SDS011;3632;42.724;23.298;2024-03-06T13:52:03;6.07;;;4.30;;
7181;SDS011;3632;42.724;23.298;2024-03-06T13:54:32;6.87;;;4.50;;
7181;SDS011;3632;42.724;23.298;2024-03-06T13:56:59;7.30;;;4.43;;
7181;SDS011;3632;42.724;23.298;2024-03-06T13:59:27;8.67;;;4.97;;
7181;SDS011;3632;42.724;23.298;2024-03-06T14:01:54;9.67;;;6.63;;
7181;SDS011;3632;42.724;23.298;2024-03-06T14:04:23;11.33;;;7.87;;
7181;SDS011;3632;42.724;23.298;2024-03-06T14:06:50;12.73;;;8.10;;
7181;SDS011;3632;42.724;23.298;2024-03-06T14:09:17;9.10;;;5.83;;
7181;SDS011;3632;42.724;23.298;2024-03-06T14:11:44;6.73;;;5.57;;
7181;SDS011;3632;42.724;23.298;2024-03-06T14:14:11;10.23;;;5.60;;
7181;SDS011;3632;42.724;23.298;2024-03-06T14:16:38;8.53;;;5.30;;
7181;SDS011;3632;42.724;23.298;2024-03-06T14:19:06;8.17;;;5.77;;
7181;SDS011;3632;42.724;23.298;2024-03-06T14:21:34;5.97;;;5.37;;
7181;SDS011;3632;42.724;23.298;2024-03-06T14:24:01;7.13;;;5.43;;
7181;SDS011;3632;42.724;23.298;2024-03-06T14:26:30;7.57;;;5.53;;
7181;SDS011;3632;42.724;23.298;2024-03-06T14:28:57;13.80;;;7.83;;
7181;SDS011;3632;42.724;23.298;2024-03-06T14:31:24;11.60;;;7.40;;
7181;SDS011;3632;42.724;23.298;2024-03-06T14:33:51;11.43;;;7.20;;
7181;SDS011;3632;42.724;23.298;2024-03-06T14:36:18;8.83;;;6.87;;
7181;SDS011;3632;42.724;23.298;2024-03-06T14:38:48;10.77;;;6.20;;
7181;SDS011;3632;42.724;23.298;2024-03-06T14:41:14;8.63;;;6.47;;
7181;SDS011;3632;42.724;23.298;2024-03-06T14:43:41;7.80;;;6.07;;
7181;SDS011;3632;42.724;23.298;2024-03-06T14:46:08;11.23;;;7.20;;
7181;SDS011;3632;42.724;23.298;2024-03-06T14:48:35;8.20;;;6.37;;